createdAt,value
2022-12-03T00:02:40.217Z,-5.50
2022-12-03T00:05:39.768Z,-5.50
2022-12-03T00:08:39.743Z,-5.40
2022-12-03T00:11:37.759Z,-5.40
2022-12-03T00:14:37.823Z,-5.40
2022-12-03T00:17:39.576Z,-5.40
2022-12-03T00:20:37.375Z,-5.30
2022-12-03T00:23:41.534Z,-5.20
2022-12-03T00:26:39.986Z,-5.30
2022-12-03T00:29:37.892Z,-5.40
2022-12-03T00:32:35.760Z,-5.40
2022-12-03T00:35:33.712Z,-5.40
2022-12-03T00:38:31.569Z,-5.40
2022-12-03T00:41:29.517Z,-5.50
2022-12-03T00:44:27.577Z,-5.70
2022-12-03T00:47:25.640Z,-5.80
2022-12-03T00:50:23.549Z,-5.70
2022-12-03T00:53:21.444Z,-5.70
2022-12-03T00:56:19.214Z,-5.70
2022-12-03T00:59:17.119Z,-5.80
2022-12-03T01:02:14.939Z,-5.80
2022-12-03T01:05:13.088Z,-5.70
2022-12-03T01:08:20.297Z,-5.70
2022-12-03T01:11:40.107Z,-5.70
2022-12-03T01:14:38.291Z,-5.80
2022-12-03T01:17:36.312Z,-5.80
2022-12-03T01:20:34.185Z,-5.90
2022-12-03T01:23:32.146Z,-6.00
2022-12-03T01:26:30.120Z,-6.00
2022-12-03T01:29:28.282Z,-6.10
2022-12-03T01:32:26.341Z,-6.00
2022-12-03T01:35:24.354Z,-5.90
2022-12-03T01:38:22.233Z,-5.90
2022-12-03T01:41:21.360Z,-6.00
2022-12-03T01:44:28.873Z,-6.00
2022-12-03T01:47:42.237Z,-6.10
2022-12-03T01:50:40.067Z,-6.10
2022-12-03T01:53:38.014Z,-6.20
2022-12-03T01:56:35.886Z,-6.10
2022-12-03T01:59:38.465Z,-6.10
2022-12-03T02:02:36.440Z,-6.10
2022-12-03T02:05:36.423Z,-6.10
2022-12-03T02:08:37.032Z,-6.20
2022-12-03T02:11:38.349Z,-6.20
2022-12-03T02:14:36.238Z,-6.20
2022-12-03T02:17:34.426Z,-6.20
2022-12-03T02:20:36.575Z,-6.30
2022-12-03T02:23:45.723Z,-6.30
2022-12-03T02:26:43.756Z,-6.30
2022-12-03T02:29:41.868Z,-6.30
2022-12-03T02:32:39.821Z,-6.30
2022-12-03T02:35:39.078Z,-6.40
2022-12-03T02:38:37.149Z,-6.40
2022-12-03T02:41:50.638Z,-6.30
2022-12-03T02:44:48.583Z,-6.20
2022-12-03T02:47:50.753Z,-6.10
2022-12-03T02:50:53.690Z,-6.00
2022-12-03T02:53:54.159Z,-6.00
2022-12-03T02:56:52.020Z,-6.00
2022-12-03T02:59:50.121Z,-6.00
2022-12-03T03:02:48.033Z,-5.90
2022-12-03T03:05:46.999Z,-5.90
2022-12-03T03:08:45.196Z,-5.70
2022-12-03T03:11:43.474Z,-5.70
2022-12-03T03:14:41.376Z,-5.70
2022-12-03T03:17:40.192Z,-5.60
2022-12-03T03:20:39.286Z,-5.50
2022-12-03T03:23:37.389Z,-5.40
2022-12-03T03:26:35.292Z,-5.20
2022-12-03T03:29:34.661Z,-5.20
2022-12-03T03:32:33.499Z,-5.00
2022-12-03T03:35:31.689Z,-4.80
2022-12-03T03:38:30.881Z,-4.90
2022-12-03T03:41:29.986Z,-4.80
2022-12-03T03:44:28.901Z,-4.70
2022-12-03T03:47:27.158Z,-4.60
2022-12-03T03:50:25.448Z,-4.50
2022-12-03T03:53:25.221Z,-4.30
2022-12-03T03:56:24.236Z,-4.30
2022-12-03T03:59:22.324Z,-4.10
2022-12-03T04:02:22.765Z,-4.00
2022-12-03T04:05:23.240Z,-4.00
2022-12-03T04:08:21.083Z,-4.00
2022-12-03T04:11:34.531Z,-3.90
2022-12-03T04:14:32.585Z,-3.80
2022-12-03T04:17:30.518Z,-3.80
2022-12-03T04:20:28.324Z,-3.70
2022-12-03T04:23:30.936Z,-3.60
2022-12-03T04:26:44.642Z,-3.60
2022-12-03T04:29:42.632Z,-3.50
2022-12-03T04:33:00.437Z,-3.40
2022-12-03T04:35:58.495Z,-3.40
2022-12-03T04:38:56.352Z,-3.30
2022-12-03T04:41:54.376Z,-3.30
2022-12-03T04:44:52.643Z,-3.20
2022-12-03T04:47:50.839Z,-3.10
2022-12-03T04:50:48.855Z,-2.90
2022-12-03T04:53:46.796Z,-2.70
2022-12-03T04:56:44.903Z,-2.70
2022-12-03T04:59:43.001Z,-2.70
2022-12-03T05:02:41.330Z,-2.70
2022-12-03T05:05:39.345Z,-2.60
2022-12-03T05:08:37.152Z,-2.50
2022-12-03T05:11:35.392Z,-2.40
2022-12-03T05:14:33.243Z,-2.40
2022-12-03T05:17:31.221Z,-2.30
2022-12-03T05:20:49.862Z,-2.20
2022-12-03T05:23:51.455Z,-2.10
2022-12-03T05:26:49.301Z,-2.00
2022-12-03T05:29:47.256Z,-1.90
2022-12-03T05:32:45.202Z,-1.80
2022-12-03T05:35:43.335Z,-1.80
2022-12-03T05:38:41.119Z,-1.70
2022-12-03T05:41:54.842Z,-1.60
2022-12-03T05:44:53.374Z,-1.70
2022-12-03T05:47:52.390Z,-1.60
2022-12-03T05:50:50.278Z,-1.60
2022-12-03T05:53:48.293Z,-1.50
2022-12-03T05:56:46.158Z,-1.50
2022-12-03T05:59:44.169Z,-1.30
2022-12-03T06:02:42.288Z,-1.20
2022-12-03T06:05:40.329Z,-1.10
2022-12-03T06:08:38.097Z,-0.90
2022-12-03T06:11:37.733Z,-0.80
2022-12-03T06:14:36.336Z,-0.70
2022-12-03T06:17:34.392Z,-0.60
2022-12-03T06:20:32.267Z,-0.50
2022-12-03T06:23:31.875Z,-0.50
2022-12-03T06:26:30.829Z,-0.70
2022-12-03T06:29:28.830Z,-0.60
2022-12-03T06:32:26.819Z,-0.40
2022-12-03T06:35:24.817Z,-0.60
2022-12-03T06:38:22.921Z,-0.40
2022-12-03T06:41:21.275Z,-0.20
2022-12-03T06:44:19.104Z,-0.20
2022-12-03T06:47:17.167Z,-0.20
2022-12-03T06:50:15.278Z,-0.10
2022-12-03T06:53:13.244Z,0.00
2022-12-03T06:56:11.070Z,0.10
2022-12-03T06:59:09.105Z,-0.10
2022-12-03T07:02:07.625Z,0.10
2022-12-03T07:05:06.541Z,0.30
2022-12-03T07:08:04.717Z,0.40
2022-12-03T07:11:02.867Z,0.40
2022-12-03T07:14:05.615Z,0.40
2022-12-03T07:17:04.290Z,0.50
2022-12-03T07:20:02.283Z,0.50
2022-12-03T07:23:00.304Z,0.60
2022-12-03T07:25:58.142Z,0.60
2022-12-03T07:28:56.103Z,0.60
2022-12-03T07:31:54.721Z,0.50
2022-12-03T07:34:52.909Z,0.50
2022-12-03T07:37:50.938Z,0.70
2022-12-03T07:40:48.900Z,0.70
2022-12-03T07:43:46.899Z,0.70
2022-12-03T07:46:45.211Z,0.80
2022-12-03T07:49:43.115Z,0.80
2022-12-03T07:52:41.118Z,0.70
2022-12-03T07:55:38.921Z,0.70
2022-12-03T07:58:36.904Z,0.90
2022-12-03T08:01:35.248Z,0.90
2022-12-03T08:04:33.319Z,1.00
2022-12-03T08:07:31.170Z,1.10
2022-12-03T08:10:29.371Z,1.00
2022-12-03T08:13:28.666Z,1.10
2022-12-03T08:16:27.538Z,1.10
2022-12-03T08:19:25.838Z,1.20
2022-12-03T08:22:23.911Z,1.30
2022-12-03T08:25:29.700Z,1.30
2022-12-03T08:28:27.943Z,1.30
2022-12-03T08:31:32.787Z,1.20
2022-12-03T08:34:34.694Z,1.30
2022-12-03T08:37:33.918Z,1.10
2022-12-03T08:40:37.708Z,1.10
2022-12-03T08:43:42.577Z,1.30
2022-12-03T08:46:40.548Z,1.30
2022-12-03T08:49:38.629Z,1.30
2022-12-03T08:52:36.629Z,1.30
2022-12-03T08:55:37.845Z,1.50
2022-12-03T08:58:42.091Z,1.40
2022-12-03T09:01:44.494Z,1.10
2022-12-03T09:04:46.920Z,0.50
2022-12-03T09:07:45.366Z,0.70
2022-12-03T09:10:43.345Z,0.60
2022-12-03T09:13:41.613Z,0.80
2022-12-03T09:16:42.210Z,0.80
2022-12-03T09:19:46.171Z,0.80
2022-12-03T09:22:44.582Z,0.80
2022-12-03T09:25:42.461Z,0.90
2022-12-03T09:28:42.556Z,0.80
2022-12-03T09:31:41.012Z,0.80
2022-12-03T09:34:39.148Z,0.80
2022-12-03T09:37:37.011Z,0.70
2022-12-03T09:40:35.578Z,0.50
2022-12-03T09:44:02.932Z,0.40
2022-12-03T09:46:53.584Z,0.40
2022-12-03T09:49:52.271Z,0.20
2022-12-03T09:52:51.726Z,0.00
2022-12-03T09:55:50.594Z,0.00
2022-12-03T09:58:49.308Z,0.10
2022-12-03T10:01:47.324Z,0.00
2022-12-03T10:04:45.458Z,-0.20
2022-12-03T10:07:43.781Z,-0.20
2022-12-03T10:10:43.845Z,-0.30
2022-12-03T10:13:42.418Z,-0.20
2022-12-03T10:16:41.823Z,-0.30
2022-12-03T10:19:41.081Z,-0.20
2022-12-03T10:26:03.929Z,-0.40
2022-12-03T10:29:02.295Z,-0.50
2022-12-03T10:32:09.834Z,-0.50
2022-12-03T10:35:11.273Z,-0.60
2022-12-03T10:38:23.884Z,-0.60
2022-12-03T10:41:28.039Z,-0.50
2022-12-03T10:44:26.725Z,-0.60
2022-12-03T10:47:26.206Z,-0.70
2022-12-03T10:54:42.145Z,-0.80
2022-12-03T10:57:45.260Z,-0.80
2022-12-03T11:00:44.009Z,-0.90
2022-12-03T11:03:42.358Z,-1.00
2022-12-03T11:06:40.799Z,-1.00
2022-12-03T11:09:39.139Z,-1.00
2022-12-03T11:12:38.032Z,-0.90
2022-12-03T11:24:06.470Z,-1.10
2022-12-03T11:27:19.893Z,-1.30
2022-12-03T11:30:54.135Z,-1.40
2022-12-03T11:34:29.899Z,-1.60
2022-12-03T11:37:28.934Z,-1.50
2022-12-03T11:40:28.357Z,-1.50
2022-12-03T11:43:57.282Z,-1.70
2022-12-03T11:46:56.206Z,-1.60
2022-12-03T11:49:54.703Z,-1.60
2022-12-03T11:52:59.475Z,-1.50
2022-12-03T11:56:09.803Z,-1.50
2022-12-03T11:59:14.264Z,-1.60
2022-12-03T12:02:21.675Z,-1.50
2022-12-03T12:05:33.280Z,-1.40
2022-12-03T12:08:32.261Z,-1.40
2022-12-03T12:11:39.172Z,-1.30
2022-12-03T12:14:36.990Z,-1.20
2022-12-03T12:17:36.917Z,-1.20
2022-12-03T12:20:34.816Z,-1.20
2022-12-03T12:23:32.458Z,-1.20
2022-12-03T12:26:30.399Z,-1.30
2022-12-03T12:29:28.927Z,-1.40
2022-12-03T12:32:35.653Z,-1.40
2022-12-03T12:35:33.426Z,-1.40
2022-12-03T12:38:31.261Z,-1.40
2022-12-03T12:41:28.926Z,-1.40
2022-12-03T12:44:27.962Z,-1.40
2022-12-03T12:47:26.780Z,-1.60
2022-12-03T12:50:25.616Z,-1.50
2022-12-03T12:53:26.338Z,-1.50
2022-12-03T12:56:28.412Z,-1.60
2022-12-03T12:59:27.168Z,-1.60
2022-12-03T13:02:41.526Z,-1.70
2022-12-03T13:05:42.201Z,-1.70
2022-12-03T13:08:43.248Z,-1.70
2022-12-03T13:11:46.231Z,-1.70
2022-12-03T13:14:44.450Z,-1.90
2022-12-03T13:17:42.305Z,-2.00
2022-12-03T13:20:40.201Z,-2.00
2022-12-03T13:23:38.790Z,-2.00
2022-12-03T13:26:40.306Z,-2.10
2022-12-03T13:29:38.361Z,-2.10
2022-12-03T13:32:40.744Z,-2.10
2022-12-03T13:35:40.521Z,-2.20
2022-12-03T13:38:38.347Z,-2.30
2022-12-03T13:41:51.794Z,-2.30
2022-12-03T13:44:50.853Z,-2.40
2022-12-03T13:48:16.555Z,-2.40
2022-12-03T13:51:30.492Z,-2.40
2022-12-03T13:54:31.830Z,-2.50
2022-12-03T13:57:29.756Z,-2.50
2022-12-03T14:00:27.517Z,-2.60
2022-12-03T14:03:25.535Z,-2.60
2022-12-03T14:06:23.549Z,-2.70
2022-12-03T14:09:21.409Z,-2.70
2022-12-03T14:12:26.425Z,-2.70
2022-12-03T14:15:25.819Z,-2.80
2022-12-03T14:18:23.929Z,-2.90
2022-12-03T14:21:21.816Z,-2.90
2022-12-03T14:24:20.954Z,-2.90
2022-12-03T14:27:19.599Z,-2.90
2022-12-03T14:30:17.724Z,-2.90
2022-12-03T14:33:15.950Z,-2.90
2022-12-03T14:36:14.162Z,-3.00
2022-12-03T14:39:11.944Z,-3.00
2022-12-03T14:42:17.375Z,-3.00
2022-12-03T14:45:15.410Z,-3.10
2022-12-03T14:48:13.324Z,-3.10
2022-12-03T14:51:11.655Z,-3.10
2022-12-03T14:54:09.940Z,-3.20
2022-12-03T14:57:07.796Z,-3.20
2022-12-03T15:00:07.703Z,-3.20
2022-12-03T15:03:05.698Z,-3.20
2022-12-03T15:06:03.592Z,-3.20
2022-12-03T15:09:01.573Z,-3.20
2022-12-03T15:12:00.426Z,-3.30
2022-12-03T15:14:58.288Z,-3.30
2022-12-03T15:17:56.166Z,-3.40
2022-12-03T15:20:54.048Z,-3.40
2022-12-03T15:23:51.967Z,-3.50
2022-12-03T15:26:50.231Z,-3.50
2022-12-03T15:29:48.168Z,-3.60
2022-12-03T15:32:46.078Z,-3.60
2022-12-03T15:35:44.835Z,-3.70
2022-12-03T15:38:42.720Z,-3.60
2022-12-03T15:41:41.573Z,-3.60
2022-12-03T15:44:39.573Z,-3.70
2022-12-03T15:47:37.335Z,-3.70
2022-12-03T15:50:40.238Z,-3.70
2022-12-03T15:53:38.623Z,-3.70
2022-12-03T15:56:37.951Z,-3.70
2022-12-03T15:59:36.908Z,-3.70
2022-12-03T16:02:34.903Z,-3.80
2022-12-03T16:05:33.259Z,-3.70
2022-12-03T16:08:31.168Z,-3.80
2022-12-03T16:11:29.105Z,-3.70
2022-12-03T16:14:29.013Z,-3.70
2022-12-03T16:17:26.886Z,-3.70
2022-12-03T16:20:24.877Z,-3.70
2022-12-03T16:23:22.764Z,-3.70
2022-12-03T16:26:21.643Z,-3.70
2022-12-03T16:29:20.161Z,-3.70
2022-12-03T16:32:18.108Z,-3.70
2022-12-03T16:35:16.034Z,-3.70
2022-12-03T16:38:13.851Z,-3.70
2022-12-03T16:41:11.945Z,-3.70
2022-12-03T16:44:20.524Z,-3.70
2022-12-03T16:47:18.458Z,-3.60
2022-12-03T16:50:24.311Z,-3.60
2022-12-03T16:53:26.508Z,-3.60
2022-12-03T16:56:24.580Z,-3.90
2022-12-03T16:59:22.622Z,-3.90
2022-12-03T17:02:20.560Z,-3.90
2022-12-03T17:05:18.598Z,-4.00
2022-12-03T17:08:17.324Z,-3.90
2022-12-03T17:11:15.306Z,-3.90
2022-12-03T17:14:13.053Z,-3.80
2022-12-03T17:17:10.903Z,-3.70
2022-12-03T17:20:09.479Z,-3.50
2022-12-03T17:23:07.624Z,-3.30
2022-12-03T17:26:05.876Z,-3.40
2022-12-03T17:29:03.770Z,-3.40
2022-12-03T17:32:05.730Z,-3.40
2022-12-03T17:35:04.018Z,-3.30
2022-12-03T17:38:04.815Z,-3.30
2022-12-03T17:41:02.780Z,-3.30
2022-12-03T17:44:09.805Z,-3.10
2022-12-03T17:47:08.592Z,-2.90
2022-12-03T17:50:10.116Z,-2.70
2022-12-03T17:53:11.036Z,-2.60
2022-12-03T17:56:09.011Z,-2.60
2022-12-03T17:59:06.929Z,-2.50
2022-12-03T18:02:05.633Z,-2.40
2022-12-03T18:05:03.892Z,-2.40
2022-12-03T18:08:04.273Z,-2.30
2022-12-03T18:11:02.409Z,-2.10
2022-12-03T18:14:01.954Z,-2.10
2022-12-03T18:16:59.956Z,-1.90
2022-12-03T18:19:58.161Z,-1.80
2022-12-03T18:22:56.229Z,-1.70
2022-12-03T18:25:54.099Z,-1.70
2022-12-03T18:28:52.022Z,-1.60
2022-12-03T18:31:50.234Z,-1.60
2022-12-03T18:34:48.160Z,-1.60
2022-12-03T18:37:46.137Z,-1.60
2022-12-03T18:40:48.694Z,-1.40
2022-12-03T18:43:47.338Z,-1.50
2022-12-03T18:46:53.652Z,-1.40
2022-12-03T18:49:52.430Z,-1.30
2022-12-03T18:52:50.630Z,-1.30
2022-12-03T18:55:50.064Z,-1.20
2022-12-03T18:58:48.230Z,-1.20
2022-12-03T19:01:47.125Z,-1.10
2022-12-03T19:04:45.320Z,-1.10
2022-12-03T19:07:43.870Z,-1.00
2022-12-03T19:10:43.110Z,-0.90
2022-12-03T19:13:42.111Z,-0.80
2022-12-03T19:16:41.966Z,-0.70
2022-12-03T19:19:39.871Z,-0.70
2022-12-03T19:22:38.485Z,-0.70
2022-12-03T19:25:36.920Z,-0.80
2022-12-03T19:28:35.450Z,-0.70
2022-12-03T19:31:34.238Z,-0.60
2022-12-03T19:34:32.781Z,-0.60
2022-12-03T19:37:34.305Z,-0.60
2022-12-03T19:40:32.714Z,-0.50
2022-12-03T19:43:33.267Z,-0.40
2022-12-03T19:46:31.729Z,-0.40
2022-12-03T19:49:29.734Z,-0.40
2022-12-03T19:52:27.807Z,-0.40
2022-12-03T19:55:25.984Z,-0.30
2022-12-03T19:58:24.131Z,-0.30
2022-12-03T20:01:25.879Z,-0.40
2022-12-03T20:04:24.372Z,-0.30
2022-12-03T20:07:22.291Z,-0.30
2022-12-03T20:10:20.372Z,-0.20
2022-12-03T20:13:18.365Z,-0.40
2022-12-03T20:16:17.142Z,-0.50
2022-12-03T20:19:17.263Z,-0.90
2022-12-03T20:22:15.219Z,-0.90
2022-12-03T20:25:13.028Z,-0.90
2022-12-03T20:28:10.963Z,-1.10
2022-12-03T20:31:13.858Z,-1.00
2022-12-03T20:34:12.295Z,-1.00
2022-12-03T20:37:10.263Z,-1.00
2022-12-03T20:40:08.806Z,-1.00
2022-12-03T20:43:06.790Z,-1.00
2022-12-03T20:46:11.020Z,-0.90
2022-12-03T20:49:08.991Z,-0.90
2022-12-03T20:52:07.161Z,-1.00
2022-12-03T20:55:05.403Z,-0.90
2022-12-03T20:58:03.411Z,-0.90
2022-12-03T21:01:19.339Z,-0.90
2022-12-03T21:04:18.561Z,-0.90
2022-12-03T21:07:16.509Z,-0.80
2022-12-03T21:10:30.329Z,-0.80
2022-12-03T21:13:32.270Z,-0.70
2022-12-03T21:17:06.113Z,-0.70
2022-12-03T21:19:51.888Z,-0.70
2022-12-03T21:22:50.867Z,-0.70
2022-12-03T21:25:48.758Z,-0.70
2022-12-03T21:28:48.225Z,-0.60
2022-12-03T21:31:46.137Z,-0.70
2022-12-03T21:34:43.929Z,-0.60
2022-12-03T21:37:41.908Z,-0.70
2022-12-03T21:40:39.852Z,-0.60
2022-12-03T21:43:37.991Z,-0.70
2022-12-03T21:47:11.392Z,-0.70
2022-12-03T21:49:54.002Z,-0.80
2022-12-03T21:52:52.368Z,-0.70
2022-12-03T21:55:50.142Z,-0.70
2022-12-03T21:58:48.322Z,-0.70
2022-12-03T22:01:47.440Z,-0.70
2022-12-03T22:04:49.536Z,-1.10
2022-12-03T22:07:47.304Z,-1.60
2022-12-03T22:10:45.586Z,-1.60
2022-12-03T22:13:43.868Z,-1.40
2022-12-03T22:16:41.837Z,-1.30
2022-12-03T22:19:40.294Z,-1.20
2022-12-03T22:22:38.218Z,-1.20
2022-12-03T22:25:36.095Z,-1.10
2022-12-03T22:28:34.675Z,-1.10
2022-12-03T22:31:32.864Z,-1.00
2022-12-03T22:34:30.790Z,-1.10
2022-12-03T22:37:28.638Z,-1.10
2022-12-03T22:40:26.611Z,-1.00
2022-12-03T22:43:25.202Z,-1.00
2022-12-03T22:46:23.154Z,-1.00
2022-12-03T22:49:21.125Z,-1.10
2022-12-03T22:52:18.987Z,-1.10
2022-12-03T22:55:16.758Z,-1.10
2022-12-03T22:58:14.597Z,-1.30
2022-12-03T23:01:23.641Z,-1.20
2022-12-03T23:04:21.651Z,-1.10
2022-12-03T23:07:19.683Z,-1.00
2022-12-03T23:10:17.608Z,-1.10
2022-12-03T23:13:15.934Z,-1.00
2022-12-03T23:16:16.476Z,-1.10
2022-12-03T23:19:15.193Z,-1.10
2022-12-03T23:22:13.131Z,-1.10
2022-12-03T23:25:12.470Z,-1.10
2022-12-03T23:28:11.286Z,-1.10
2022-12-03T23:31:20.422Z,-1.00
2022-12-03T23:34:18.344Z,-1.10
2022-12-03T23:37:16.382Z,-1.10
2022-12-03T23:40:14.617Z,-1.00
2022-12-03T23:43:12.503Z,-1.10
2022-12-03T23:46:14.665Z,-1.10
2022-12-03T23:49:12.403Z,-1.00
2022-12-03T23:52:10.231Z,-1.10
2022-12-03T23:55:08.575Z,-1.20
2022-12-03T23:58:06.423Z,-1.20
